Time;durP1;ratioP1;P1;durP2;ratioP2;P2;SDS_P1;SDS_P2;PMS_P1;PMS_P2;Temp;Humidity;BMP_temperature;BMP_pressure;BME280_temperature;BME280_humidity;BME280_pressure;Samples;Min_cycle;Max_cycle;Signal;HPM_P1;HPM_P2
2022/08/09 00:01:47;;;;;;;;;;;;;;;;;;5015944;28;20288;-27
2022/08/09 00:04:13;;;;;;;;;;;;;;;;;;5016379;28;19913;-26
2022/08/09 00:06:39;;;;;;;;;;;;;;;;;;5015479;28;19936;-27
2022/08/09 00:09:05;;;;;;;;;;;;;;;;;;5016582;28;19949;-27
2022/08/09 00:11:31;;;;;;;;;;;;;;;;;;5015924;28;19910;-27
2022/08/09 00:13:57;;;;;;;;;;;;;;;;;;5015851;28;19983;-27
2022/08/09 00:16:22;;;;;;;;;;;;;;;;;;5016433;28;19913;-27
2022/08/09 00:18:48;;;;;;;;;;;;;;;;;;5015825;28;20336;-26
2022/08/09 00:21:14;;;;;;;;;;;;;;;;;;5015817;28;19916;-26
2022/08/09 00:23:40;;;;;;;;;;;;;;;;;;5015620;28;20008;-27
2022/08/09 00:26:06;;;;;;;;;;;;;;;;;;5016306;28;19913;-27
2022/08/09 00:28:32;;;;;;;;;;;;;;;;;;5015949;28;19964;-27
2022/08/09 00:30:58;;;;;;;;;;;;;;;;;;5015704;28;19921;-26
2022/08/09 00:33:25;;;;;;;;;;;;;;;;;;5015528;28;19913;-26
2022/08/09 00:35:51;;;;;;;;;;;;;;;;;;5016134;28;19913;-26
2022/08/09 00:38:17;;;;;;;;;;;;;;;;;;5015543;28;19916;-26
2022/08/09 00:40:43;;;;;;;;;;;;;;;;;;5015539;28;20245;-26
2022/08/09 00:43:09;;;;;;;;;;;;;;;;;;5015368;28;19926;-26
2022/08/09 00:45:35;;;;;;;;;;;;;;;;;;5015482;28;19913;-26
2022/08/09 00:48:01;;;;;;;;;;;;;;;;;;5016032;28;20410;-26
2022/08/09 00:50:27;;;;;;;;;;;;;;;;;;5015738;28;20004;-26
2022/08/09 00:52:53;;;;;;;;;;;;;;;;;;5015934;28;20371;-26
2022/08/09 00:55:19;;;;;;;;;;;;;;;;;;5015418;28;19924;-26
2022/08/09 00:57:45;;;;;;;;;;;;;;;;;;5015616;28;20279;-26
2022/08/09 01:00:11;;;;;;;;;;;;;;;;;;5015644;28;20004;-26
2022/08/09 01:02:37;;;;;;;;;;;;;;;;;;5015162;28;20353;-25
2022/08/09 01:05:04;;;;;;;;;;;;;;;;;;5015564;28;19977;-26
2022/08/09 01:07:30;;;;;;;;;;;;;;;;;;5015199;28;19932;-26
2022/08/09 01:09:56;;;;;;;;;;;;;;;;;;5015813;28;20240;-25
2022/08/09 01:12:22;;;;;;;;;;;;;;;;;;5015522;28;19913;-26
2022/08/09 01:14:48;;;;;;;;;;;;;;;;;;5015189;28;20230;-26
2022/08/09 01:17:15;;;;;;;;;;;;;;;;;;5015397;28;20345;-26
2022/08/09 01:19:41;;;;;;;;;;;;;;;;;;5019109;28;19914;-26
2022/08/09 01:22:08;;;;;;;;;;;;;;;;;;5019242;28;20281;-25
2022/08/09 01:24:34;;;;;;;;;;;;;;;;;;5019044;28;20013;-26
2022/08/09 01:27:00;;;;;;;;;;;;;;;;;;5018910;28;19913;-26
2022/08/09 01:29:26;;;;;;;;;;;;;;;;;;5019216;28;19928;-26
2022/08/09 01:31:52;;;;;;;;;;;;;;;;;;5019121;28;19998;-26
2022/08/09 01:34:18;;;;;;;;;;;;;;;;;;5018853;28;20028;-26
2022/08/09 01:36:44;;;;;;;;;;;;;;;;;;5019389;28;20317;-26
2022/08/09 01:39:10;;;;;;;;;;;;;;;;;;5018790;28;19921;-26
2022/08/09 01:41:40;;;;;;;;;;;;;;;;;;5018914;28;19926;-26
2022/08/09 01:44:06;;;;;;;;;;;;;;;;;;5018649;28;19945;-26
2022/08/09 01:46:32;;;;;;;;;;;;;;;;;;5019212;28;19913;-26
2022/08/09 01:48:58;;;;;;;;;;;;;;;;;;5018839;28;19945;-26
2022/08/09 01:51:24;;;;;;;;;;;;;;;;;;5018801;28;20280;-26
2022/08/09 01:53:49;;;;;;;;;;;;;;;;;;5018426;28;19917;-26
2022/08/09 01:56:16;;;;;;;;;;;;;;;;;;5018469;28;19920;-26
2022/08/09 01:58:42;;;;;;;;;;;;;;;;;;5018432;28;19925;-26
2022/08/09 02:01:08;;;;;;;;;;;;;;;;;;5018897;28;20325;-26
2022/08/09 02:03:34;;;;;;;;;;;;;;;;;;5018142;28;19917;-26
2022/08/09 02:06:00;;;;;;;;;;;;;;;;;;5018281;28;19924;-26
2022/08/09 02:08:26;;;;;;;;;;;;;;;;;;5017975;28;19926;-26
2022/08/09 02:10:52;;;;;;;;;;;;;;;;;;5018206;28;19963;-26
2022/08/09 02:13:18;;;;;;;;;;;;;;;;;;5018355;28;19913;-26
2022/08/09 02:15:44;;;;;;;;;;;;;;;;;;5018082;28;19929;-26
2022/08/09 02:18:10;;;;;;;;;;;;;;;;;;5018022;28;19972;-26
2022/08/09 02:20:36;;;;;;;;;;;;;;;;;;5018000;28;19914;-26
2022/08/09 02:23:02;;;;;;;;;;;;;;;;;;5018103;28;19928;-26
2022/08/09 02:25:28;;;;;;;;;;;;;;;;;;5017886;28;19921;-26
2022/08/09 02:27:54;;;;;;;;;;;;;;;;;;5017894;28;20356;-26
2022/08/09 02:30:20;;;;;;;;;;;;;;;;;;5017088;28;19920;-26
2022/08/09 02:32:46;;;;;;;;;;;;;;;;;;5018011;28;19914;-26
2022/08/09 02:35:12;;;;;;;;;;;;;;;;;;5017995;28;19913;-26
2022/08/09 02:37:41;;;;;;;;;;;;;;;;;;5017766;28;19909;-26
2022/08/09 02:40:07;;;;;;;;;;;;;;;;;;5017922;28;20269;-26
2022/08/09 02:42:33;;;;;;;;;;;;;;;;;;5017458;28;19917;-26
2022/08/09 02:44:59;;;;;;;;;;;;;;;;;;5017571;28;20004;-26
2022/08/09 02:47:25;;;;;;;;;;;;;;;;;;5016635;28;19948;-26
2022/08/09 02:49:51;;;;;;;;;;;;;;;;;;5017457;28;19913;-26
2022/08/09 02:52:17;;;;;;;;;;;;;;;;;;5017344;28;20302;-26
2022/08/09 02:54:43;;;;;;;;;;;;;;;;;;5017397;28;19936;-26
2022/08/09 02:57:09;;;;;;;;;;;;;;;;;;5017362;28;19917;-26
2022/08/09 02:59:35;;;;;;;;;;;;;;;;;;5017535;28;20008;-26
2022/08/09 03:02:01;;;;;;;;;;;;;;;;;;5017133;28;19952;-27
2022/08/09 03:04:27;;;;;;;;;;;;;;;;;;5017160;28;19914;-26
2022/08/09 03:06:53;;;;;;;;;;;;;;;;;;5016960;28;19909;-26
2022/08/09 03:09:19;;;;;;;;;;;;;;;;;;5017083;28;19979;-26
2022/08/09 03:11:45;;;;;;;;;;;;;;;;;;5017524;28;19968;-26
2022/08/09 03:14:11;;;;;;;;;;;;;;;;;;5017260;28;19971;-26
2022/08/09 03:16:37;;;;;;;;;;;;;;;;;;5017233;28;20201;-26
2022/08/09 03:19:03;;;;;;;;;;;;;;;;;;5017158;28;20234;-26
2022/08/09 03:21:29;;;;;;;;;;;;;;;;;;5016881;28;19970;-26
2022/08/09 03:23:55;;;;;;;;;;;;;;;;;;5016595;28;19929;-26
2022/08/09 03:26:21;;;;;;;;;;;;;;;;;;5017032;28;19917;-26
2022/08/09 03:28:47;;;;;;;;;;;;;;;;;;5016758;28;19940;-26
2022/08/09 03:31:13;;;;;;;;;;;;;;;;;;5016671;28;20345;-26
2022/08/09 03:33:39;;;;;;;;;;;;;;;;;;5016619;28;19914;-26
2022/08/09 03:36:09;;;;;;;;;;;;;;;;;;5016576;28;19918;-26
2022/08/09 03:38:35;;;;;;;;;;;;;;;;;;5016536;28;19921;-26
2022/08/09 03:41:01;;;;;;;;;;;;;;;;;;5015546;28;19914;-26
2022/08/09 03:43:28;;;;;;;;;;;;;;;;;;5016461;28;19960;-26
2022/08/09 03:45:54;;;;;;;;;;;;;;;;;;5015423;28;20345;-26
2022/08/09 03:48:20;;;;;;;;;;;;;;;;;;5016900;28;19924;-26
2022/08/09 03:50:46;;;;;;;;;;;;;;;;;;5016314;28;20007;-26
2022/08/09 03:53:12;;;;;;;;;;;;;;;;;;5016192;28;20319;-26
2022/08/09 03:55:38;;;;;;;;;;;;;;;;;;5016138;28;19963;-26
2022/08/09 03:58:04;;;;;;;;;;;;;;;;;;5016153;28;19948;-27
2022/08/09 04:00:30;;;;;;;;;;;;;;;;;;5016318;28;19984;-27
2022/08/09 04:02:56;;;;;;;;;;;;;;;;;;5015937;28;19941;-26
2022/08/09 04:05:22;;;;;;;;;;;;;;;;;;5016090;28;20248;-26
2022/08/09 04:07:48;;;;;;;;;;;;;;;;;;5015772;28;20414;-26
2022/08/09 04:10:14;;;;;;;;;;;;;;;;;;5015703;28;19914;-26
2022/08/09 04:12:40;;;;;;;;;;;;;;;;;;5014837;28;20238;-26
2022/08/09 04:15:06;;;;;;;;;;;;;;;;;;5016565;28;19913;-26
2022/08/09 04:17:32;;;;;;;;;;;;;;;;;;5015738;28;19914;-26
2022/08/09 04:19:58;;;;;;;;;;;;;;;;;;5015607;28;20349;-26
2022/08/09 04:22:24;;;;;;;;;;;;;;;;;;5015301;28;19958;-28
2022/08/09 04:24:50;;;;;;;;;;;;;;;;;;5016084;28;19948;-28
2022/08/09 04:27:16;;;;;;;;;;;;;;;;;;5015807;28;19913;-28
2022/08/09 04:29:42;;;;;;;;;;;;;;;;;;5015756;28;20336;-27
2022/08/09 04:32:07;;;;;;;;;;;;;;;;;;5015379;28;19924;-27
2022/08/09 04:34:33;;;;;;;;;;;;;;;;;;5015367;28;19928;-28
2022/08/09 04:36:59;;;;;;;;;;;;;;;;;;5015280;28;19955;-27
2022/08/09 04:39:25;;;;;;;;;;;;;;;;;;5015353;28;19924;-26
2022/08/09 04:41:51;;;;;;;;;;;;;;;;;;5015361;28;20000;-27
2022/08/09 04:44:17;;;;;;;;;;;;;;;;;;5015232;28;20317;-27
2022/08/09 04:46:43;;;;;;;;;;;;;;;;;;5015310;28;20245;-27
2022/08/09 04:49:09;;;;;;;;;;;;;;;;;;5015282;28;19920;-26
2022/08/09 04:51:35;;;;;;;;;;;;;;;;;;5015487;28;20376;-26
2022/08/09 04:54:01;;;;;;;;;;;;;;;;;;5014812;28;20004;-27
2022/08/09 04:56:29;;;;;;;;;;;;;;;;;;5015731;28;19913;-27
2022/08/09 04:58:55;;;;;;;;;;;;;;;;;;5015151;28;19910;-27
2022/08/09 05:01:21;;;;;;;;;;;;;;;;;;5015137;28;20000;-27
2022/08/09 05:03:47;;;;;;;;;;;;;;;;;;5015254;28;19917;-26
2022/08/09 05:06:13;;;;;;;;;;;;;;;;;;5015330;28;20237;-27
2022/08/09 05:08:39;;;;;;;;;;;;;;;;;;5015021;28;19941;-26
2022/08/09 05:11:05;;;;;;;;;;;;;;;;;;5015317;28;19988;-27
2022/08/09 05:13:31;;;;;;;;;;;;;;;;;;5015026;28;20348;-27
2022/08/09 05:15:57;;;;;;;;;;;;;;;;;;5015051;28;19963;-27
2022/08/09 05:18:28;;;;;;;;;;;;;;;;;;5014974;28;19913;-27
2022/08/09 05:20:54;;;;;;;;;;;;;;;;;;5015236;28;20338;-25
2022/08/09 05:23:20;;;;;;;;;;;;;;;;;;5015102;28;20312;-26
2022/08/09 05:25:46;;;;;;;;;;;;;;;;;;5014983;28;19910;-26
2022/08/09 05:28:12;;;;;;;;;;;;;;;;;;5015202;28;20306;-26
2022/08/09 05:30:38;;;;;;;;;;;;;;;;;;5015387;28;19996;-27
2022/08/09 05:33:04;;;;;;;;;;;;;;;;;;5014814;28;19910;-26
2022/08/09 05:35:30;;;;;;;;;;;;;;;;;;5014768;28;19918;-27
2022/08/09 05:37:56;;;;;;;;;;;;;;;;;;5014715;28;20264;-26
2022/08/09 05:40:24;;;;;;;;;;;;;;;;;;5014652;28;19914;-27
2022/08/09 05:42:50;;;;;;;;;;;;;;;;;;5014543;28;19914;-27
2022/08/09 05:45:16;;;;;;;;;;;;;;;;;;5014732;28;19924;-27
2022/08/09 05:47:42;;;;;;;;;;;;;;;;;;5015309;28;19914;-27
2022/08/09 05:50:08;;;;;;;;;;;;;;;;;;5014668;28;20415;-27
2022/08/09 05:52:34;;;;;;;;;;;;;;;;;;5015208;28;19914;-27
2022/08/09 05:55:00;;;;;;;;;;;;;;;;;;5014919;28;20256;-26
2022/08/09 05:57:26;;;;;;;;;;;;;;;;;;5014467;28;19948;-26
2022/08/09 05:59:52;;;;;;;;;;;;;;;;;;5015199;28;19921;-27
2022/08/09 06:02:18;;;;;;;;;;;;;;;;;;5014860;28;20252;-27
2022/08/09 06:04:44;;;;;;;;;;;;;;;;;;5015343;28;19914;-26
2022/08/09 06:07:10;;;;;;;;;;;;;;;;;;5017809;28;19933;-26
2022/08/09 06:09:36;;;;;;;;;;;;;;;;;;5018268;28;19913;-26
2022/08/09 06:12:02;;;;;;;;;;;;;;;;;;5018403;28;19916;-26
2022/08/09 06:14:28;;;;;;;;;;;;;;;;;;5018329;28;20004;-27
2022/08/09 06:16:54;;;;;;;;;;;;;;;;;;5018812;28;20240;-27
2022/08/09 06:19:20;;;;;;;;;;;;;;;;;;5018052;28;19921;-26
2022/08/09 06:21:46;;;;;;;;;;;;;;;;;;5017767;28;19948;-26
2022/08/09 06:24:12;;;;;;;;;;;;;;;;;;5017857;28;19913;-26
2022/08/09 06:26:40;;;;;;;;;;;;;;;;;;5018115;28;19921;-27
2022/08/09 06:29:07;;;;;;;;;;;;;;;;;;5017860;28;19909;-26
2022/08/09 06:31:33;;;;;;;;;;;;;;;;;;5017808;28;19914;-26
2022/08/09 06:33:59;;;;;;;;;;;;;;;;;;5017540;28;20055;-28
2022/08/09 06:36:25;;;;;;;;;;;;;;;;;;5018186;28;20352;-27
2022/08/09 06:38:51;;;;;;;;;;;;;;;;;;5017556;28;20268;-28
2022/08/09 06:41:17;;;;;;;;;;;;;;;;;;5017437;28;20015;-27
2022/08/09 06:43:43;;;;;;;;;;;;;;;;;;5017288;28;20008;-26
2022/08/09 06:46:09;;;;;;;;;;;;;;;;;;5017684;28;19959;-26
2022/08/09 06:48:35;;;;;;;;;;;;;;;;;;5017604;28;19920;-26
2022/08/09 06:51:01;;;;;;;;;;;;;;;;;;5017322;28;19913;-26
2022/08/09 06:53:27;;;;;;;;;;;;;;;;;;5017298;28;20276;-27
2022/08/09 06:55:53;;;;;;;;;;;;;;;;;;5017310;28;20268;-26
2022/08/09 06:58:19;;;;;;;;;;;;;;;;;;5017458;28;19949;-26
2022/08/09 07:00:45;;;;;;;;;;;;;;;;;;5017119;28;19920;-27
2022/08/09 07:03:11;;;;;;;;;;;;;;;;;;5017064;28;20360;-27
2022/08/09 07:05:37;;;;;;;;;;;;;;;;;;5017214;28;20260;-26
2022/08/09 07:08:03;;;;;;;;;;;;;;;;;;5016932;28;19922;-26
2022/08/09 07:10:31;;;;;;;;;;;;;;;;;;5017212;28;20319;-26
2022/08/09 07:12:57;;;;;;;;;;;;;;;;;;5016889;28;19913;-26
2022/08/09 07:15:23;;;;;;;;;;;;;;;;;;5017216;28;20289;-26
2022/08/09 07:17:49;;;;;;;;;;;;;;;;;;5017110;28;19914;-27
2022/08/09 07:20:15;;;;;;;;;;;;;;;;;;5017276;28;20400;-27
2022/08/09 07:22:41;;;;;;;;;;;;;;;;;;5016647;28;19917;-27
2022/08/09 07:25:07;;;;;;;;;;;;;;;;;;5016705;28;19909;-27
2022/08/09 07:27:33;;;;;;;;;;;;;;;;;;5016668;28;19913;-26
2022/08/09 07:29:59;;;;;;;;;;;;;;;;;;5016669;28;19918;-26
2022/08/09 07:32:25;;;;;;;;;;;;;;;;;;5016729;28;20314;-26
2022/08/09 07:34:51;;;;;;;;;;;;;;;;;;5016758;28;19909;-26
2022/08/09 07:37:17;;;;;;;;;;;;;;;;;;5016658;28;19937;-26
2022/08/09 07:39:43;;;;;;;;;;;;;;;;;;5016419;28;19909;-27
2022/08/09 07:42:10;;;;;;;;;;;;;;;;;;5016412;28;20279;-26
2022/08/09 07:44:36;;;;;;;;;;;;;;;;;;5016361;28;19918;-27
2022/08/09 07:47:02;;;;;;;;;;;;;;;;;;5016287;28;19913;-27
2022/08/09 07:49:28;;;;;;;;;;;;;;;;;;5016262;28;19932;-26
2022/08/09 07:51:54;;;;;;;;;;;;;;;;;;5016051;28;19920;-26
2022/08/09 07:54:20;;;;;;;;;;;;;;;;;;5016318;28;19925;-26
2022/08/09 07:56:46;;;;;;;;;;;;;;;;;;5016902;28;20344;-26
2022/08/09 07:59:12;;;;;;;;;;;;;;;;;;5016088;28;19940;-27
2022/08/09 08:01:38;;;;;;;;;;;;;;;;;;5016079;28;19963;-27
2022/08/09 08:04:04;;;;;;;;;;;;;;;;;;5016990;28;19918;-26
2022/08/09 08:06:29;;;;;;;;;;;;;;;;;;5016074;28;19917;-26
2022/08/09 08:08:55;;;;;;;;;;;;;;;;;;5015710;28;19921;-26
2022/08/09 08:11:21;;;;;;;;;;;;;;;;;;5016099;28;20247;-26
2022/08/09 08:13:47;;;;;;;;;;;;;;;;;;5015718;28;19996;-26
2022/08/09 08:16:13;;;;;;;;;;;;;;;;;;5015697;28;20357;-27
2022/08/09 08:18:39;;;;;;;;;;;;;;;;;;5015693;28;19932;-26
2022/08/09 08:21:05;;;;;;;;;;;;;;;;;;5015651;28;19913;-26
2022/08/09 08:23:31;;;;;;;;;;;;;;;;;;5015393;28;19918;-26
2022/08/09 08:25:57;;;;;;;;;;;;;;;;;;5015500;28;19959;-27
2022/08/09 08:28:23;;;;;;;;;;;;;;;;;;5015409;28;19913;-26
2022/08/09 08:30:49;;;;;;;;;;;;;;;;;;5015441;28;20344;-26
2022/08/09 08:33:15;;;;;;;;;;;;;;;;;;5016182;28;19913;-27
2022/08/09 08:35:41;;;;;;;;;;;;;;;;;;5016127;28;20008;-27
2022/08/09 08:38:07;;;;;;;;;;;;;;;;;;5015976;28;19952;-27
2022/08/09 08:40:33;;;;;;;;;;;;;;;;;;5015383;28;19914;-27
2022/08/09 08:42:59;;;;;;;;;;;;;;;;;;5015184;28;20360;-27
2022/08/09 08:45:26;;;;;;;;;;;;;;;;;;5015396;28;19909;-26
2022/08/09 08:47:52;;;;;;;;;;;;;;;;;;5015388;28;20356;-26
2022/08/09 08:50:18;;;;;;;;;;;;;;;;;;5015733;28;19956;-26
2022/08/09 08:52:44;;;;;;;;;;;;;;;;;;5015573;28;20253;-27
2022/08/09 08:55:10;;;;;;;;;;;;;;;;;;5015779;28;19921;-27
2022/08/09 08:57:36;;;;;;;;;;;;;;;;;;5015807;28;19952;-27
2022/08/09 09:00:02;;;;;;;;;;;;;;;;;;5015230;28;20004;-27
2022/08/09 09:02:28;;;;;;;;;;;;;;;;;;5014948;28;19913;-27
2022/08/09 09:04:54;;;;;;;;;;;;;;;;;;5015241;28;19916;-26
2022/08/09 09:07:20;;;;;;;;;;;;;;;;;;5015073;28;19921;-26
2022/08/09 09:09:47;;;;;;;;;;;;;;;;;;5015329;28;20252;-27
2022/08/09 09:12:12;;;;;;;;;;;;;;;;;;5014935;28;19920;-27
2022/08/09 09:14:38;;;;;;;;;;;;;;;;;;5015088;28;20249;-27
2022/08/09 09:17:04;;;;;;;;;;;;;;;;;;5015363;28;20006;-27
2022/08/09 09:19:31;;;;;;;;;;;;;;;;;;5014931;28;20288;-27
2022/08/09 09:21:56;;;;;;;;;;;;;;;;;;5015286;28;20237;-27
2022/08/09 09:24:22;;;;;;;;;;;;;;;;;;5015019;28;19909;-27
2022/08/09 09:26:48;;;;;;;;;;;;;;;;;;5014927;28;19917;-27
2022/08/09 09:29:14;;;;;;;;;;;;;;;;;;5015430;28;19914;-27
2022/08/09 09:31:40;;;;;;;;;;;;;;;;;;5014846;28;19914;-27
2022/08/09 09:34:06;;;;;;;;;;;;;;;;;;5015412;28;20003;-27
2022/08/09 09:36:32;;;;;;;;;;;;;;;;;;5015112;28;19914;-27
2022/08/09 09:39:01;;;;;;;;;;;;;;;;;;5016251;28;20406;-27
2022/08/09 09:41:27;;;;;;;;;;;;;;;;;;5018865;28;20352;-27
2022/08/09 09:43:53;;;;;;;;;;;;;;;;;;5018790;28;19917;-26
2022/08/09 09:46:19;;;;;;;;;;;;;;;;;;5018888;28;20341;-26
2022/08/09 09:48:45;;;;;;;;;;;;;;;;;;5018479;28;20344;-26
2022/08/09 09:51:11;;;;;;;;;;;;;;;;;;5018977;28;20024;-26
2022/08/09 09:53:37;;;;;;;;;;;;;;;;;;5018481;28;19917;-26
2022/08/09 09:56:03;;;;;;;;;;;;;;;;;;5018341;28;19924;-25
2022/08/09 09:58:29;;;;;;;;;;;;;;;;;;5018181;28;19918;-26
2022/08/09 10:00:55;;;;;;;;;;;;;;;;;;5018581;28;20245;-26
2022/08/09 10:03:21;;;;;;;;;;;;;;;;;;5017989;28;19925;-27
2022/08/09 10:05:47;;;;;;;;;;;;;;;;;;5018411;28;19913;-27
2022/08/09 10:08:13;;;;;;;;;;;;;;;;;;5018032;28;19957;-26
2022/08/09 10:10:39;;;;;;;;;;;;;;;;;;5018082;28;19917;-26
2022/08/09 10:13:05;;;;;;;;;;;;;;;;;;5018005;28;19909;-26
2022/08/09 10:15:31;;;;;;;;;;;;;;;;;;5018013;28;19909;-27
2022/08/09 10:17:57;;;;;;;;;;;;;;;;;;5018511;28;19975;-27
2022/08/09 10:20:25;;;;;;;;;;;;;;;;;;5017857;28;19909;-27
2022/08/09 10:22:52;;;;;;;;;;;;;;;;;;5017670;28;20344;-28
2022/08/09 10:25:18;;;;;;;;;;;;;;;;;;5018105;28;19914;-26
2022/08/09 10:27:44;;;;;;;;;;;;;;;;;;5017847;28;20245;-26
2022/08/09 10:30:10;;;;;;;;;;;;;;;;;;5017979;28;20000;-26
2022/08/09 10:32:36;;;;;;;;;;;;;;;;;;5018204;28;20299;-27
2022/08/09 10:35:02;;;;;;;;;;;;;;;;;;5017672;28;20292;-26
2022/08/09 10:37:28;;;;;;;;;;;;;;;;;;5017790;28;19964;-27
2022/08/09 10:39:54;;;;;;;;;;;;;;;;;;5016956;28;19914;-27
2022/08/09 10:42:20;;;;;;;;;;;;;;;;;;5017194;28;20042;-27
2022/08/09 10:44:46;;;;;;;;;;;;;;;;;;5017505;28;19913;-27
2022/08/09 10:47:12;;;;;;;;;;;;;;;;;;5017381;28;20004;-27
2022/08/09 10:49:38;;;;;;;;;;;;;;;;;;5016945;28;20328;-26
2022/08/09 10:52:04;;;;;;;;;;;;;;;;;;5016450;28;20015;-26
2022/08/09 10:54:30;;;;;;;;;;;;;;;;;;5017186;28;20280;-26
2022/08/09 10:56:56;;;;;;;;;;;;;;;;;;5017048;28;20256;-26
2022/08/09 10:59:22;;;;;;;;;;;;;;;;;;5017510;28;19913;-26
2022/08/09 11:01:48;;;;;;;;;;;;;;;;;;5017463;28;19910;-26
2022/08/09 11:04:14;;;;;;;;;;;;;;;;;;5017264;28;19964;-27
2022/08/09 11:06:40;;;;;;;;;;;;;;;;;;5016990;28;20293;-27
2022/08/09 11:09:06;;;;;;;;;;;;;;;;;;5017427;28;19940;-26
2022/08/09 11:11:32;;;;;;;;;;;;;;;;;;5016931;28;19925;-26
2022/08/09 11:13:58;;;;;;;;;;;;;;;;;;5016936;28;19909;-26
2022/08/09 11:16:24;;;;;;;;;;;;;;;;;;5016855;28;19914;-27
2022/08/09 11:18:51;;;;;;;;;;;;;;;;;;5016904;28;19909;-26
2022/08/09 11:21:17;;;;;;;;;;;;;;;;;;5016698;28;19914;-26
2022/08/09 11:23:43;;;;;;;;;;;;;;;;;;5016620;28;20028;-27
2022/08/09 11:26:08;;;;;;;;;;;;;;;;;;5016727;28;19921;-28
2022/08/09 11:28:34;;;;;;;;;;;;;;;;;;5015698;28;19909;-27
2022/08/09 11:31:00;;;;;;;;;;;;;;;;;;5016567;28;19910;-26
2022/08/09 11:33:26;;;;;;;;;;;;;;;;;;5016518;28;19917;-26
2022/08/09 11:35:52;;;;;;;;;;;;;;;;;;5016430;28;19913;-27
2022/08/09 11:38:18;;;;;;;;;;;;;;;;;;5016707;28;20350;-26
2022/08/09 11:40:45;;;;;;;;;;;;;;;;;;5016391;28;19913;-27
2022/08/09 11:43:11;;;;;;;;;;;;;;;;;;5016438;28;19960;-26
2022/08/09 11:45:38;;;;;;;;;;;;;;;;;;5016486;28;19972;-28
2022/08/09 11:48:04;;;;;;;;;;;;;;;;;;5016260;28;19953;-28
2022/08/09 11:50:31;;;;;;;;;;;;;;;;;;5016219;28;19963;-28
2022/08/09 11:52:57;;;;;;;;;;;;;;;;;;5016145;28;20004;-27
2022/08/09 11:55:23;;;;;;;;;;;;;;;;;;5016559;28;19913;-28
2022/08/09 11:57:49;;;;;;;;;;;;;;;;;;5016640;28;19922;-26
2022/08/09 12:00:15;;;;;;;;;;;;;;;;;;5015998;28;19921;-26
2022/08/09 12:02:41;;;;;;;;;;;;;;;;;;5014927;28;19914;-27
2022/08/09 12:05:07;;;;;;;;;;;;;;;;;;5015942;28;19925;-26
2022/08/09 12:07:33;;;;;;;;;;;;;;;;;;5015812;28;20363;-26
2022/08/09 12:09:59;;;;;;;;;;;;;;;;;;5015840;28;19913;-26
2022/08/09 12:12:25;;;;;;;;;;;;;;;;;;5015806;28;19963;-27
2022/08/09 12:14:51;;;;;;;;;;;;;;;;;;5016056;28;20346;-27
2022/08/09 12:17:17;;;;;;;;;;;;;;;;;;5015774;28;19909;-27
2022/08/09 12:19:43;;;;;;;;;;;;;;;;;;5015928;28;19924;-27
2022/08/09 12:22:09;;;;;;;;;;;;;;;;;;5015553;28;19909;-27
2022/08/09 12:24:35;;;;;;;;;;;;;;;;;;5015822;28;19925;-27
2022/08/09 12:27:01;;;;;;;;;;;;;;;;;;5015985;28;19909;-27
2022/08/09 12:29:31;;;;;;;;;;;;;;;;;;5015611;28;19918;-26
2022/08/09 12:31:57;;;;;;;;;;;;;;;;;;5015796;28;19910;-27
2022/08/09 12:34:23;;;;;;;;;;;;;;;;;;5015754;28;20355;-26
2022/08/09 12:36:50;;;;;;;;;;;;;;;;;;5015807;28;20013;-26
2022/08/09 12:39:16;;;;;;;;;;;;;;;;;;5015714;28;19914;-27
2022/08/09 12:41:42;;;;;;;;;;;;;;;;;;5015514;28;20504;-27
2022/08/09 12:44:08;;;;;;;;;;;;;;;;;;5015346;28;20012;-27
2022/08/09 12:46:34;;;;;;;;;;;;;;;;;;5015901;28;19968;-27
2022/08/09 12:49:00;;;;;;;;;;;;;;;;;;5015718;28;19925;-27
2022/08/09 12:51:26;;;;;;;;;;;;;;;;;;5015220;28;19910;-26
2022/08/09 12:53:52;;;;;;;;;;;;;;;;;;5015714;28;19914;-27
2022/08/09 12:56:17;;;;;;;;;;;;;;;;;;5015198;28;19936;-26
2022/08/09 12:58:44;;;;;;;;;;;;;;;;;;5015095;28;19910;-26
2022/08/09 13:01:10;;;;;;;;;;;;;;;;;;5015695;28;19917;-26
2022/08/09 13:03:36;;;;;;;;;;;;;;;;;;5015069;28;19917;-26
2022/08/09 13:06:02;;;;;;;;;;;;;;;;;;5014908;28;19913;-27
2022/08/09 13:08:28;;;;;;;;;;;;;;;;;;5014896;28;19933;-27
2022/08/09 13:10:54;;;;;;;;;;;;;;;;;;5015392;28;19913;-27
2022/08/09 13:13:20;;;;;;;;;;;;;;;;;;5016012;28;20359;-27
2022/08/09 13:15:48;;;;;;;;;;;;;;;;;;5018375;28;20219;-27
2022/08/09 13:18:14;;;;;;;;;;;;;;;;;;5019069;28;19959;-27
2022/08/09 13:20:40;;;;;;;;;;;;;;;;;;5018870;28;19923;-27
2022/08/09 13:23:06;;;;;;;;;;;;;;;;;;5019097;28;19917;-27
2022/08/09 13:25:31;;;;;;;;;;;;;;;;;;5018873;28;19914;-26
2022/08/09 13:27:57;;;;;;;;;;;;;;;;;;5019643;28;19917;-27
2022/08/09 13:30:24;;;;;;;;;;;;;;;;;;5018772;28;19952;-27
2022/08/09 13:32:50;;;;;;;;;;;;;;;;;;5018858;28;20016;-27
2022/08/09 13:35:16;;;;;;;;;;;;;;;;;;5018652;28;20344;-26
2022/08/09 13:37:42;;;;;;;;;;;;;;;;;;5018599;28;19920;-27
2022/08/09 13:40:08;;;;;;;;;;;;;;;;;;5018821;28;19910;-27
2022/08/09 13:42:35;;;;;;;;;;;;;;;;;;5018504;28;19917;-26
2022/08/09 13:45:01;;;;;;;;;;;;;;;;;;5018879;28;19913;-27
2022/08/09 13:47:27;;;;;;;;;;;;;;;;;;5018757;28;20244;-27
2022/08/09 13:49:53;;;;;;;;;;;;;;;;;;5018716;28;19924;-27
2022/08/09 13:52:19;;;;;;;;;;;;;;;;;;5018291;28;20403;-26
2022/08/09 13:54:45;;;;;;;;;;;;;;;;;;5018268;28;20256;-26
2022/08/09 13:57:11;;;;;;;;;;;;;;;;;;5018607;28;19909;-27
2022/08/09 13:59:37;;;;;;;;;;;;;;;;;;5018250;28;20383;-26
2022/08/09 14:02:03;;;;;;;;;;;;;;;;;;5018001;28;19956;-27
2022/08/09 14:04:29;;;;;;;;;;;;;;;;;;5018280;28;19940;-26
2022/08/09 14:06:55;;;;;;;;;;;;;;;;;;5018014;28;19914;-28
2022/08/09 14:09:21;;;;;;;;;;;;;;;;;;5018127;28;19914;-27
2022/08/09 14:11:47;;;;;;;;;;;;;;;;;;5018134;28;19913;-27
2022/08/09 14:14:13;;;;;;;;;;;;;;;;;;5018108;28;19913;-27
2022/08/09 14:16:39;;;;;;;;;;;;;;;;;;5018120;28;20282;-27
2022/08/09 14:19:05;;;;;;;;;;;;;;;;;;5018397;28;20451;-27
2022/08/09 14:21:31;;;;;;;;;;;;;;;;;;5017876;28;20031;-27
2022/08/09 14:23:57;;;;;;;;;;;;;;;;;;5018139;28;19924;-27
2022/08/09 14:26:23;;;;;;;;;;;;;;;;;;5017194;28;20288;-27
2022/08/09 14:28:49;;;;;;;;;;;;;;;;;;5017652;28;19913;-27
2022/08/09 14:31:15;;;;;;;;;;;;;;;;;;5017752;28;19968;-27
2022/08/09 14:33:41;;;;;;;;;;;;;;;;;;5017926;28;20225;-27
2022/08/09 14:36:07;;;;;;;;;;;;;;;;;;5018239;28;19933;-27
2022/08/09 14:38:33;;;;;;;;;;;;;;;;;;5017630;28;20340;-27
2022/08/09 14:40:59;;;;;;;;;;;;;;;;;;5016645;28;19913;-27
2022/08/09 14:43:25;;;;;;;;;;;;;;;;;;5017491;28;20352;-27
2022/08/09 14:45:51;;;;;;;;;;;;;;;;;;5018416;28;19940;-27
2022/08/09 14:48:17;;;;;;;;;;;;;;;;;;5017422;28;20047;-27
2022/08/09 14:50:43;;;;;;;;;;;;;;;;;;5017486;28;19980;-27
2022/08/09 14:53:10;;;;;;;;;;;;;;;;;;5017320;28;20256;-27
2022/08/09 14:55:36;;;;;;;;;;;;;;;;;;5017391;28;19940;-27
2022/08/09 14:58:02;;;;;;;;;;;;;;;;;;5017873;28;19909;-27
2022/08/09 15:00:28;;;;;;;;;;;;;;;;;;5017316;28;20356;-26
2022/08/09 15:02:54;;;;;;;;;;;;;;;;;;5017310;28;20260;-26
2022/08/09 15:05:20;;;;;;;;;;;;;;;;;;5017146;28;19914;-26
2022/08/09 15:07:46;;;;;;;;;;;;;;;;;;5016852;28;19976;-26
2022/08/09 15:10:12;;;;;;;;;;;;;;;;;;5017664;28;20000;-26
2022/08/09 15:12:38;;;;;;;;;;;;;;;;;;5017014;28;20349;-26
2022/08/09 15:15:03;;;;;;;;;;;;;;;;;;5017259;28;20348;-27
2022/08/09 15:17:29;;;;;;;;;;;;;;;;;;5017275;28;19925;-26
2022/08/09 15:19:55;;;;;;;;;;;;;;;;;;5017261;28;19999;-26
2022/08/09 15:22:21;;;;;;;;;;;;;;;;;;5016771;28;19928;-26
2022/08/09 15:24:47;;;;;;;;;;;;;;;;;;5017417;28;19920;-27
2022/08/09 15:27:13;;;;;;;;;;;;;;;;;;5017113;28;19910;-26
2022/08/09 15:29:39;;;;;;;;;;;;;;;;;;5016708;28;19918;-26
2022/08/09 15:32:05;;;;;;;;;;;;;;;;;;5016878;28;19964;-26
2022/08/09 15:34:31;;;;;;;;;;;;;;;;;;5016631;28;20414;-26
2022/08/09 15:36:57;;;;;;;;;;;;;;;;;;5016420;28;19910;-27
2022/08/09 15:39:23;;;;;;;;;;;;;;;;;;5016522;28;19913;-26
2022/08/09 15:41:49;;;;;;;;;;;;;;;;;;5016368;28;19976;-27
2022/08/09 15:44:15;;;;;;;;;;;;;;;;;;5016567;28;19957;-26
2022/08/09 15:46:41;;;;;;;;;;;;;;;;;;5016909;28;19909;-27
2022/08/09 15:49:07;;;;;;;;;;;;;;;;;;5016361;28;19936;-26
2022/08/09 15:51:33;;;;;;;;;;;;;;;;;;5016852;28;19909;-26
2022/08/09 15:54:00;;;;;;;;;;;;;;;;;;5016249;28;19917;-26
2022/08/09 15:56:26;;;;;;;;;;;;;;;;;;5016350;28;20003;-26
2022/08/09 15:58:52;;;;;;;;;;;;;;;;;;5016422;28;20332;-26
2022/08/09 16:01:18;;;;;;;;;;;;;;;;;;5016131;28;19945;-26
2022/08/09 16:03:44;;;;;;;;;;;;;;;;;;5016044;28;19924;-27
2022/08/09 16:06:10;;;;;;;;;;;;;;;;;;5016012;28;19913;-26
2022/08/09 16:08:36;;;;;;;;;;;;;;;;;;5015823;28;19929;-26
2022/08/09 16:11:02;;;;;;;;;;;;;;;;;;5015938;28;19910;-27
2022/08/09 16:13:28;;;;;;;;;;;;;;;;;;5015947;28;20349;-27
2022/08/09 16:15:54;;;;;;;;;;;;;;;;;;5016571;28;19913;-27
2022/08/09 16:18:20;;;;;;;;;;;;;;;;;;5016749;28;19913;-27
2022/08/09 16:20:46;;;;;;;;;;;;;;;;;;5015880;28;20344;-27
2022/08/09 16:23:12;;;;;;;;;;;;;;;;;;5015627;28;19917;-27
2022/08/09 16:25:38;;;;;;;;;;;;;;;;;;5015723;28;19913;-27
2022/08/09 16:28:04;;;;;;;;;;;;;;;;;;5015690;28;19996;-27
2022/08/09 16:30:30;;;;;;;;;;;;;;;;;;5015690;28;19913;-27
2022/08/09 16:33:08;;;;;;;;;;;;;;;;;;5015836;28;19910;-26
2022/08/09 16:35:34;;;;;;;;;;;;;;;;;;5015531;28;19924;-27
2022/08/09 16:38:00;;;;;;;;;;;;;;;;;;5015574;28;20008;-27